createdAt,value
2023-05-02T00:01:54.854Z,100232.84
2023-05-02T00:04:22.758Z,100230.91
2023-05-02T00:06:49.775Z,100230.34
2023-05-02T00:09:16.805Z,100235.77
2023-05-02T00:11:43.647Z,100240.48
2023-05-02T00:14:11.012Z,100244.33
2023-05-02T00:16:37.922Z,100243.83
2023-05-02T00:19:04.829Z,100242.29
2023-05-02T00:21:33.047Z,100239.19
2023-05-02T00:24:00.498Z,100246.39
2023-05-02T00:26:27.835Z,100242.40
2023-05-02T00:28:54.858Z,100241.66
2023-05-02T00:31:21.771Z,100245.48
2023-05-02T00:33:48.796Z,100245.30
2023-05-02T00:36:16.550Z,100245.70
2023-05-02T00:38:44.635Z,100249.21
2023-05-02T00:41:11.800Z,100252.17
2023-05-02T00:43:41.712Z,100256.20
2023-05-02T00:46:08.903Z,100254.80
2023-05-02T00:48:36.602Z,100257.78
2023-05-02T00:51:05.386Z,100259.17
2023-05-02T00:53:32.706Z,100259.90
2023-05-02T00:55:59.865Z,100262.70
2023-05-02T00:58:26.796Z,100267.08
2023-05-02T01:01:12.545Z,100271.80
2023-05-02T01:03:39.637Z,100273.55
2023-05-02T01:06:29.858Z,100276.40
2023-05-02T01:09:03.487Z,100279.95
2023-05-02T01:11:49.709Z,100282.10
2023-05-02T01:14:16.545Z,100278.44
2023-05-02T01:16:44.050Z,100281.06
2023-05-02T01:19:16.285Z,100280.01
2023-05-02T01:21:43.243Z,100278.47
2023-05-02T01:24:18.105Z,100279.20
2023-05-02T01:26:54.899Z,100281.63
2023-05-02T01:29:21.780Z,100287.58
2023-05-02T01:31:49.935Z,100286.73
2023-05-02T01:34:18.819Z,100285.69
2023-05-02T01:36:46.934Z,100286.77
2023-05-02T01:39:16.376Z,100287.14
2023-05-02T01:41:43.307Z,100286.98
2023-05-02T01:44:10.180Z,100291.92
2023-05-02T01:46:38.860Z,100294.04
2023-05-02T01:49:06.936Z,100294.09
2023-05-02T01:51:36.029Z,100297.09
2023-05-02T01:54:07.586Z,100295.89
2023-05-02T01:56:36.289Z,100297.13
2023-05-02T01:59:05.424Z,100299.10
2023-05-02T02:01:32.486Z,100297.38
2023-05-02T02:03:59.596Z,100292.14
2023-05-02T02:06:27.748Z,100292.37
2023-05-02T02:08:55.431Z,100296.39
2023-05-02T02:11:25.596Z,100295.38
2023-05-02T02:13:55.784Z,100298.80
2023-05-02T02:16:25.757Z,100300.06
2023-05-02T02:18:52.951Z,100296.60
2023-05-02T02:21:20.113Z,100298.71
2023-05-02T02:23:47.970Z,100299.60
2023-05-02T02:26:14.941Z,100302.92
2023-05-02T02:28:43.026Z,100301.71
2023-05-02T02:31:09.982Z,100302.09
2023-05-02T02:33:36.941Z,100304.76
2023-05-02T02:36:16.151Z,100298.34
2023-05-02T02:38:46.511Z,100293.35
2023-05-02T02:41:23.654Z,100291.48
2023-05-02T02:44:17.530Z,100291.84
2023-05-02T02:46:50.885Z,100291.32
2023-05-02T02:50:02.852Z,100295.66
2023-05-02T02:53:02.118Z,100297.91
2023-05-02T02:55:38.710Z,100308.93
2023-05-02T02:58:24.126Z,100307.73
2023-05-02T03:00:51.803Z,100307.86
2023-05-02T03:03:19.229Z,100307.48
2023-05-02T03:05:46.413Z,100311.30
2023-05-02T03:08:14.903Z,100311.81
2023-05-02T03:10:41.970Z,100310.76
2023-05-02T03:13:09.411Z,100314.75
2023-05-02T03:15:48.904Z,100317.86
2023-05-02T03:18:16.674Z,100319.93
2023-05-02T03:20:44.118Z,100326.21
2023-05-02T03:23:11.235Z,100327.38
2023-05-02T03:25:39.105Z,100329.45
2023-05-02T03:28:06.354Z,100334.29
2023-05-02T03:30:33.631Z,100335.48
2023-05-02T03:33:01.873Z,100334.95
2023-05-02T03:35:28.897Z,100336.11
2023-05-02T03:37:55.988Z,100341.83
2023-05-02T03:40:23.273Z,100345.80
2023-05-02T03:42:50.529Z,100348.38
2023-05-02T03:45:22.066Z,100352.52
2023-05-02T03:47:49.535Z,100354.41
2023-05-02T03:50:16.714Z,100362.61
2023-05-02T03:52:45.394Z,100361.34
2023-05-02T03:55:12.468Z,100367.04
2023-05-02T03:57:40.015Z,100364.36
2023-05-02T04:00:08.214Z,100364.66
2023-05-02T04:02:44.768Z,100367.75
2023-05-02T04:05:15.209Z,100368.23
2023-05-02T04:07:42.353Z,100362.41
2023-05-02T04:10:16.580Z,100367.95
2023-05-02T04:12:48.131Z,100370.17
2023-05-02T04:15:16.107Z,100370.45
2023-05-02T04:17:43.933Z,100368.44
2023-05-02T04:20:12.361Z,100371.33
2023-05-02T04:22:43.203Z,100377.70
2023-05-02T04:25:10.586Z,100382.69
2023-05-02T04:27:39.972Z,100386.11
2023-05-02T04:30:13.058Z,100387.65
2023-05-02T04:32:41.928Z,100387.59
2023-05-02T04:35:10.232Z,100388.23
2023-05-02T04:37:38.122Z,100388.40
2023-05-02T04:40:06.701Z,100392.77
2023-05-02T04:42:33.643Z,100399.33
2023-05-02T04:45:16.869Z,100396.60
2023-05-02T04:47:45.167Z,100395.64
2023-05-02T04:50:12.201Z,100397.96
2023-05-02T04:52:39.102Z,100399.80
2023-05-02T04:55:07.067Z,100399.27
2023-05-02T04:57:34.287Z,100399.42
2023-05-02T05:00:02.751Z,100403.39
2023-05-02T05:02:30.398Z,100407.73
2023-05-02T05:04:58.114Z,100408.35
2023-05-02T05:07:25.801Z,100409.13
2023-05-02T05:09:53.953Z,100407.80
2023-05-02T05:12:23.887Z,100405.42
2023-05-02T05:14:51.235Z,100402.52
2023-05-02T05:17:19.734Z,100408.39
2023-05-02T05:19:47.296Z,100408.67
2023-05-02T05:22:14.147Z,100412.98
2023-05-02T05:24:41.261Z,100414.54
2023-05-02T05:27:08.134Z,100416.04
2023-05-02T05:29:35.999Z,100415.93
2023-05-02T05:32:03.394Z,100415.17
2023-05-02T05:34:31.081Z,100415.45
2023-05-02T05:37:00.660Z,100414.81
2023-05-02T05:39:28.230Z,100418.17
2023-05-02T05:41:57.624Z,100423.11
2023-05-02T05:44:25.626Z,100422.02
2023-05-02T05:46:53.192Z,100424.23
2023-05-02T05:49:22.299Z,100423.17
2023-05-02T05:51:50.125Z,100418.48
2023-05-02T05:54:18.884Z,100419.03
2023-05-02T05:56:46.081Z,100418.36
2023-05-02T05:59:15.620Z,100418.07
2023-05-02T06:01:42.829Z,100417.92
2023-05-02T06:04:10.112Z,100414.23
2023-05-02T06:06:40.444Z,100417.11
2023-05-02T06:09:08.285Z,100417.84
2023-05-02T06:11:38.025Z,100415.32
2023-05-02T06:14:05.551Z,100419.81
2023-05-02T06:16:32.917Z,100418.50
2023-05-02T06:19:00.045Z,100414.95
2023-05-02T06:21:26.918Z,100418.27
2023-05-02T06:23:53.806Z,100419.00
2023-05-02T06:26:21.888Z,100419.09
2023-05-02T06:28:48.827Z,100416.99
2023-05-02T06:31:16.544Z,100420.36
2023-05-02T06:33:43.542Z,100419.32
2023-05-02T06:36:11.249Z,100418.35
2023-05-02T06:38:38.171Z,100416.91
2023-05-02T06:41:05.024Z,100418.77
2023-05-02T06:43:33.019Z,100415.64
2023-05-02T06:46:00.965Z,100413.38
2023-05-02T06:48:27.843Z,100418.94
2023-05-02T06:50:54.786Z,100422.02
2023-05-02T06:53:21.727Z,100419.14
2023-05-02T06:55:49.291Z,100420.42
2023-05-02T06:58:16.355Z,100422.51
2023-05-02T07:00:43.343Z,100417.60
2023-05-02T07:03:11.604Z,100414.54
2023-05-02T07:05:38.602Z,100412.60
2023-05-02T07:08:06.019Z,100411.20
2023-05-02T07:10:33.056Z,100411.16
2023-05-02T07:12:59.993Z,100411.92
2023-05-02T07:15:26.943Z,100412.75
2023-05-02T07:17:53.813Z,100413.56
2023-05-02T07:20:22.031Z,100413.80
2023-05-02T07:22:48.898Z,100414.36
2023-05-02T07:25:15.890Z,100413.42
2023-05-02T07:27:42.726Z,100410.10
2023-05-02T07:30:09.834Z,100408.06
2023-05-02T07:32:36.773Z,100409.58
2023-05-02T07:35:03.809Z,100409.69
2023-05-02T07:37:35.451Z,100404.84
2023-05-02T07:40:03.784Z,100411.37
2023-05-02T07:42:31.399Z,100417.02
2023-05-02T07:44:58.572Z,100415.19
2023-05-02T07:47:26.942Z,100417.98
2023-05-02T07:49:54.295Z,100416.84
2023-05-02T07:52:21.348Z,100415.05
2023-05-02T07:54:49.685Z,100414.09
2023-05-02T07:57:16.743Z,100415.56
2023-05-02T07:59:43.670Z,100413.50
2023-05-02T08:02:11.401Z,100413.88
2023-05-02T08:04:38.505Z,100414.84
2023-05-02T08:07:05.877Z,100411.55
2023-05-02T08:09:32.975Z,100411.00
2023-05-02T08:11:59.964Z,100413.46
2023-05-02T08:14:26.794Z,100415.42
2023-05-02T08:16:53.731Z,100414.50
2023-05-02T08:19:20.670Z,100413.55
2023-05-02T08:21:47.633Z,100417.64
2023-05-02T08:24:14.577Z,100413.60
2023-05-02T08:26:41.630Z,100415.14
2023-05-02T08:29:11.841Z,100414.75
2023-05-02T08:31:41.996Z,100417.44
2023-05-02T08:34:09.236Z,100416.90
2023-05-02T08:36:37.402Z,100416.05
2023-05-02T08:39:04.471Z,100412.02
2023-05-02T08:41:31.622Z,100405.91
2023-05-02T08:43:58.575Z,100403.85
2023-05-02T08:46:26.226Z,100402.02
2023-05-02T08:48:53.504Z,100396.70
2023-05-02T08:53:52.514Z,100389.75
2023-05-02T08:56:19.778Z,100385.09
2023-05-02T08:58:46.933Z,100381.90
2023-05-02T09:01:17.825Z,100382.28
2023-05-02T09:03:46.185Z,100381.86
2023-05-02T09:06:17.992Z,100378.73
2023-05-02T09:08:46.636Z,100375.69
2023-05-02T09:11:13.645Z,100373.93
2023-05-02T09:13:42.192Z,100371.92
2023-05-02T09:16:16.642Z,100371.11
2023-05-02T09:18:48.205Z,100370.00
2023-05-02T09:21:21.154Z,100368.15
2023-05-02T09:23:54.407Z,100356.94
2023-05-02T09:26:22.716Z,100352.96
2023-05-02T09:28:56.273Z,100352.61
2023-05-02T09:34:15.570Z,100346.42
2023-05-02T09:36:54.748Z,100344.01
2023-05-02T09:39:26.364Z,100347.46
2023-05-02T09:41:54.118Z,100343.69
2023-05-02T09:44:23.432Z,100341.88
2023-05-02T09:46:52.030Z,100340.96
2023-05-02T09:49:19.394Z,100336.70
2023-05-02T09:51:47.534Z,100337.13
2023-05-02T09:54:15.128Z,100339.30
2023-05-02T09:56:57.792Z,100340.79
2023-05-02T09:59:24.902Z,100337.64
2023-05-02T10:01:56.890Z,100338.34
2023-05-02T10:04:24.151Z,100332.14
2023-05-02T10:06:52.074Z,100332.17
2023-05-02T10:09:21.719Z,100330.05
2023-05-02T10:11:55.585Z,100331.81
2023-05-02T10:14:23.599Z,100328.63
2023-05-02T10:16:55.217Z,100331.52
2023-05-02T10:19:57.119Z,100326.86
2023-05-02T10:22:25.101Z,100325.30
2023-05-02T10:24:52.667Z,100322.63
2023-05-02T10:27:19.764Z,100320.63
2023-05-02T10:29:47.291Z,100317.31
2023-05-02T10:32:15.168Z,100314.52
2023-05-02T10:34:42.481Z,100315.35
2023-05-02T10:37:09.418Z,100319.08
2023-05-02T10:39:36.422Z,100308.96
2023-05-02T10:42:03.715Z,100305.13
2023-05-02T10:44:34.175Z,100304.64
2023-05-02T10:47:01.402Z,100300.35
2023-05-02T10:49:30.035Z,100302.02
2023-05-02T10:51:57.826Z,100301.36
2023-05-02T10:54:25.420Z,100302.88
2023-05-02T10:57:05.931Z,100299.70
2023-05-02T10:59:37.382Z,100302.59
2023-05-02T11:02:07.116Z,100297.55
2023-05-02T11:05:03.079Z,100295.02
2023-05-02T11:07:36.196Z,100294.75
2023-05-02T11:10:15.455Z,100295.28
2023-05-02T11:12:49.376Z,100292.60
2023-05-02T11:15:41.873Z,100285.49
2023-05-02T11:18:09.823Z,100284.78
2023-05-02T11:20:39.638Z,100283.02
2023-05-02T11:23:22.148Z,100280.64
2023-05-02T11:25:54.343Z,100285.21
2023-05-02T11:28:36.900Z,100278.48
2023-05-02T11:31:05.579Z,100278.41
2023-05-02T11:33:32.558Z,100282.23
2023-05-02T11:35:59.433Z,100282.05
2023-05-02T11:38:27.128Z,100280.07
2023-05-02T11:40:56.237Z,100282.80
2023-05-02T11:43:25.139Z,100275.96
2023-05-02T11:45:52.983Z,100276.12
2023-05-02T11:48:22.238Z,100270.79
2023-05-02T11:50:51.108Z,100264.89
2023-05-02T11:53:25.696Z,100261.57
2023-05-02T11:55:53.451Z,100258.11
2023-05-02T11:58:22.033Z,100260.23
2023-05-02T12:00:49.427Z,100260.61
2023-05-02T12:03:29.814Z,100254.45
2023-05-02T12:06:20.762Z,100249.72
2023-05-02T12:08:49.495Z,100248.48
2023-05-02T12:11:17.627Z,100250.02
2023-05-02T12:13:46.419Z,100244.91
2023-05-02T12:16:13.338Z,100246.13
2023-05-02T12:18:40.246Z,100250.52
2023-05-02T12:21:07.705Z,100250.30
2023-05-02T12:23:35.914Z,100247.08
2023-05-02T12:26:17.230Z,100244.56
2023-05-02T12:28:55.018Z,100244.56
2023-05-02T12:31:22.675Z,100244.92
2023-05-02T12:33:51.088Z,100239.91
2023-05-02T12:36:19.329Z,100237.87
2023-05-02T12:38:53.441Z,100239.19
2023-05-02T12:41:51.605Z,100239.80
2023-05-02T12:44:18.934Z,100239.30
2023-05-02T12:46:58.808Z,100239.86
2023-05-02T12:49:25.935Z,100229.32
2023-05-02T12:51:53.801Z,100230.34
2023-05-02T12:54:21.280Z,100225.84
2023-05-02T12:56:49.020Z,100224.88
2023-05-02T12:59:29.382Z,100224.27
2023-05-02T13:01:56.472Z,100216.30
2023-05-02T13:04:37.580Z,100212.64
2023-05-02T13:07:04.469Z,100212.95
2023-05-02T13:09:31.426Z,100209.26
2023-05-02T13:11:59.191Z,100210.77
2023-05-02T13:14:28.048Z,100208.65
2023-05-02T13:16:55.586Z,100210.45
2023-05-02T13:19:23.009Z,100212.10
2023-05-02T13:21:50.181Z,100214.11
2023-05-02T13:24:17.646Z,100202.54
2023-05-02T13:26:44.722Z,100203.15
2023-05-02T13:29:12.871Z,100200.40
2023-05-02T13:31:39.813Z,100198.30
2023-05-02T13:34:07.279Z,100190.61
2023-05-02T13:36:34.247Z,100193.54
2023-05-02T13:39:02.104Z,100189.58
2023-05-02T13:41:28.983Z,100189.77
2023-05-02T13:43:57.037Z,100188.39
2023-05-02T13:46:24.156Z,100187.57
2023-05-02T13:48:51.270Z,100186.23
2023-05-02T13:51:18.132Z,100189.11
2023-05-02T13:53:45.495Z,100188.38
2023-05-02T13:56:12.506Z,100182.60
2023-05-02T13:58:39.452Z,100182.45
2023-05-02T14:01:06.605Z,100178.27
2023-05-02T14:03:33.967Z,100178.54
2023-05-02T14:06:01.359Z,100177.46
2023-05-02T14:08:28.432Z,100173.42
2023-05-02T14:10:55.333Z,100171.16
2023-05-02T14:13:22.390Z,100173.42
2023-05-02T14:15:49.615Z,100173.41
2023-05-02T14:18:19.440Z,100169.39
2023-05-02T14:20:46.519Z,100174.02
2023-05-02T14:23:13.372Z,100171.88
2023-05-02T14:25:40.207Z,100163.60
2023-05-02T14:28:07.013Z,100161.96
2023-05-02T14:30:34.009Z,100163.83
2023-05-02T14:33:01.115Z,100156.06
2023-05-02T14:35:28.324Z,100154.27
2023-05-02T14:37:55.277Z,100153.85
2023-05-02T14:40:22.226Z,100152.48
2023-05-02T14:42:49.071Z,100147.84
2023-05-02T14:45:16.253Z,100147.27
2023-05-02T14:47:43.555Z,100146.48
2023-05-02T14:50:11.316Z,100143.55
2023-05-02T14:52:38.315Z,100143.45
2023-05-02T14:55:06.418Z,100140.71
2023-05-02T14:57:33.560Z,100142.17
2023-05-02T15:00:01.377Z,100141.75
2023-05-02T15:02:28.870Z,100144.05
2023-05-02T15:04:55.813Z,100140.61
2023-05-02T15:07:22.779Z,100137.56
2023-05-02T15:09:50.062Z,100136.73
2023-05-02T15:12:16.977Z,100139.50
2023-05-02T15:14:43.847Z,100139.43
2023-05-02T15:17:10.860Z,100135.85
2023-05-02T15:19:37.752Z,100134.32
2023-05-02T15:22:04.582Z,100133.81
2023-05-02T15:24:31.447Z,100131.80
2023-05-02T15:26:58.399Z,100126.84
2023-05-02T15:29:25.267Z,100127.05
2023-05-02T15:31:52.224Z,100124.33
2023-05-02T15:34:19.268Z,100122.58
2023-05-02T15:36:46.201Z,100122.40
2023-05-02T15:39:13.154Z,100119.81
2023-05-02T15:41:40.022Z,100120.10
2023-05-02T15:44:06.856Z,100114.23
2023-05-02T15:46:33.810Z,100113.61
2023-05-02T15:49:00.767Z,100114.75
2023-05-02T15:51:27.803Z,100109.80
2023-05-02T15:53:55.315Z,100111.05
2023-05-02T15:56:22.354Z,100114.74
2023-05-02T15:58:49.380Z,100113.66
2023-05-02T16:01:16.477Z,100113.45
2023-05-02T16:03:43.579Z,100108.97
2023-05-02T16:06:10.671Z,100105.77
2023-05-02T16:08:37.599Z,100106.24
2023-05-02T16:11:04.528Z,100107.58
2023-05-02T16:13:31.800Z,100108.20
2023-05-02T16:15:58.648Z,100104.60
2023-05-02T16:18:28.678Z,100102.60
2023-05-02T16:20:57.261Z,100100.19
2023-05-02T16:23:25.998Z,100097.42
2023-05-02T16:26:00.143Z,100091.33
2023-05-02T16:28:27.118Z,100088.97
2023-05-02T16:30:54.160Z,100088.86
2023-05-02T16:33:21.923Z,100087.23
2023-05-02T16:35:49.149Z,100082.97
2023-05-02T16:38:16.060Z,100085.36
2023-05-02T16:40:42.976Z,100084.66
2023-05-02T16:43:09.959Z,100084.91
2023-05-02T16:45:36.826Z,100082.80
2023-05-02T16:48:04.659Z,100080.34
2023-05-02T16:50:32.038Z,100074.48
2023-05-02T16:52:58.984Z,100069.41
2023-05-02T16:55:25.962Z,100066.81
2023-05-02T16:57:52.802Z,100068.66
2023-05-02T17:00:20.710Z,100071.13
2023-05-02T17:02:47.882Z,100068.87
2023-05-02T17:05:14.959Z,100073.33
2023-05-02T17:07:41.908Z,100074.44
2023-05-02T17:10:09.784Z,100075.66
2023-05-02T17:12:36.948Z,100075.17
2023-05-02T17:15:04.570Z,100075.56
2023-05-02T17:17:31.664Z,100082.79
2023-05-02T17:19:58.642Z,100089.34
2023-05-02T17:22:26.382Z,100090.23
2023-05-02T17:24:54.888Z,100092.75
2023-05-02T17:27:21.831Z,100091.86
2023-05-02T17:29:48.636Z,100090.81
2023-05-02T17:32:16.064Z,100093.14
2023-05-02T17:34:45.733Z,100093.38
2023-05-02T17:37:12.803Z,100093.60
2023-05-02T17:39:39.772Z,100093.96
2023-05-02T17:42:07.086Z,100094.87
2023-05-02T17:44:37.032Z,100093.95
2023-05-02T17:47:04.613Z,100092.91
2023-05-02T17:49:31.651Z,100095.53
2023-05-02T17:51:58.529Z,100100.61
2023-05-02T17:54:25.452Z,100102.17
2023-05-02T17:56:52.403Z,100107.84
2023-05-02T17:59:19.584Z,100108.83
2023-05-02T18:01:46.529Z,100108.23
2023-05-02T18:04:15.039Z,100112.08
2023-05-02T18:06:42.084Z,100116.11
2023-05-02T18:09:09.027Z,100116.30
2023-05-02T18:11:38.825Z,100120.54
2023-05-02T18:14:06.325Z,100121.55
2023-05-02T18:16:34.561Z,100120.47
2023-05-02T18:19:01.708Z,100118.82
2023-05-02T18:21:29.108Z,100117.89
2023-05-02T18:23:56.966Z,100115.17
2023-05-02T18:26:24.006Z,100112.09
2023-05-02T18:28:53.511Z,100116.10
2023-05-02T18:31:21.019Z,100114.12
2023-05-02T18:33:48.014Z,100115.14
2023-05-02T18:36:19.382Z,100115.06
2023-05-02T18:38:46.848Z,100112.58
2023-05-02T18:41:13.716Z,100115.67
2023-05-02T18:43:40.752Z,100115.03
2023-05-02T18:46:08.264Z,100113.25
2023-05-02T18:48:36.354Z,100110.75
2023-05-02T18:51:03.180Z,100116.54
2023-05-02T18:53:30.157Z,100115.77
2023-05-02T18:55:57.886Z,100119.48
2023-05-02T18:58:24.758Z,100119.59
2023-05-02T19:00:51.656Z,100119.03
2023-05-02T19:03:19.211Z,100120.21
2023-05-02T19:05:46.498Z,100121.04
2023-05-02T19:08:13.380Z,100120.97
2023-05-02T19:10:40.397Z,100119.35
2023-05-02T19:13:07.292Z,100121.77
2023-05-02T19:15:34.322Z,100121.16
2023-05-02T19:18:01.324Z,100120.38
2023-05-02T19:20:30.040Z,100116.62
2023-05-02T19:23:15.228Z,100112.64
2023-05-02T19:25:46.176Z,100116.48
2023-05-02T19:28:15.912Z,100114.51
2023-05-02T19:30:43.629Z,100119.61
2023-05-02T19:33:10.883Z,100122.55
2023-05-02T19:35:37.838Z,100120.73
2023-05-02T19:38:04.800Z,100114.54
2023-05-02T19:40:31.999Z,100114.52
2023-05-02T19:42:59.013Z,100111.63
2023-05-02T19:45:25.957Z,100109.32
2023-05-02T19:47:53.494Z,100107.40
2023-05-02T19:50:20.405Z,100111.27
2023-05-02T19:52:47.264Z,100114.20
2023-05-02T19:55:16.183Z,100120.36
2023-05-02T19:57:44.762Z,100121.42
2023-05-02T20:00:13.097Z,100125.97
2023-05-02T20:02:40.214Z,100125.81
2023-05-02T20:05:07.957Z,100123.55
2023-05-02T20:07:34.808Z,100120.02
2023-05-02T20:10:01.932Z,100122.27
2023-05-02T20:12:29.220Z,100121.02
2023-05-02T20:14:56.218Z,100119.25
2023-05-02T20:17:23.099Z,100122.98
2023-05-02T20:19:49.974Z,100118.98
2023-05-02T20:22:16.967Z,100122.02
2023-05-02T20:24:43.777Z,100122.09
2023-05-02T20:27:10.770Z,100118.44
2023-05-02T20:29:37.584Z,100119.55
2023-05-02T20:32:05.121Z,100115.38
2023-05-02T20:34:35.769Z,100117.60
2023-05-02T20:37:05.470Z,100121.38
2023-05-02T20:39:32.698Z,100120.90
2023-05-02T20:41:59.638Z,100120.41
2023-05-02T20:44:27.146Z,100121.45
2023-05-02T20:46:54.313Z,100121.98
2023-05-02T20:49:21.721Z,100122.85
2023-05-02T20:51:49.913Z,100122.40
2023-05-02T20:54:16.865Z,100121.36
2023-05-02T20:56:43.903Z,100120.52
2023-05-02T20:59:11.778Z,100117.58
2023-05-02T21:01:38.993Z,100117.22
2023-05-02T21:04:05.939Z,100121.77
2023-05-02T21:06:33.042Z,100120.84
2023-05-02T21:09:01.928Z,100120.33
2023-05-02T21:11:28.975Z,100123.34
2023-05-02T21:13:55.938Z,100123.45
2023-05-02T21:16:23.092Z,100125.36
2023-05-02T21:18:50.050Z,100129.41
2023-05-02T21:21:17.116Z,100130.78
2023-05-02T21:23:44.472Z,100127.29
2023-05-02T21:26:11.517Z,100126.23
2023-05-02T21:28:38.954Z,100126.81
2023-05-02T21:31:07.103Z,100127.91
2023-05-02T21:33:34.417Z,100129.71
2023-05-02T21:36:01.618Z,100132.84
2023-05-02T21:38:28.565Z,100135.98
2023-05-02T21:40:55.820Z,100143.20
2023-05-02T21:43:22.837Z,100142.33
2023-05-02T21:45:50.116Z,100139.55
2023-05-02T21:48:17.245Z,100134.74
2023-05-02T21:50:44.421Z,100135.17
2023-05-02T21:53:11.483Z,100132.62
2023-05-02T21:55:39.811Z,100126.96
2023-05-02T21:58:07.838Z,100126.92
2023-05-02T22:00:39.618Z,100125.73
2023-05-02T22:03:12.006Z,100120.70
2023-05-02T22:05:42.586Z,100118.02
2023-05-02T22:08:11.177Z,100109.23
2023-05-02T22:10:42.597Z,100114.04
2023-05-02T22:13:13.781Z,100115.70
2023-05-02T22:15:45.733Z,100118.09
2023-05-02T22:18:14.100Z,100118.35
2023-05-02T22:20:42.429Z,100119.55
2023-05-02T22:23:09.685Z,100119.91
2023-05-02T22:25:39.173Z,100120.05
2023-05-02T22:28:11.624Z,100118.58
2023-05-02T22:30:39.023Z,100117.59
2023-05-02T22:33:06.700Z,100116.98
2023-05-02T22:35:33.755Z,100113.80
2023-05-02T22:38:01.428Z,100116.52
2023-05-02T22:40:29.475Z,100115.38
2023-05-02T22:42:56.430Z,100122.94
2023-05-02T22:45:23.321Z,100123.14
2023-05-02T22:47:51.500Z,100125.40
2023-05-02T22:50:19.992Z,100133.05
2023-05-02T22:52:49.130Z,100133.83
2023-05-02T22:55:16.097Z,100136.35
2023-05-02T22:57:43.002Z,100139.75
2023-05-02T23:00:10.859Z,100139.15
2023-05-02T23:02:37.838Z,100142.40
2023-05-02T23:05:05.302Z,100145.63
2023-05-02T23:07:32.191Z,100142.73
2023-05-02T23:09:58.986Z,100146.32
2023-05-02T23:12:25.883Z,100145.75
2023-05-02T23:14:53.344Z,100141.98
2023-05-02T23:17:20.952Z,100144.00
2023-05-02T23:19:49.096Z,100138.89
2023-05-02T23:22:17.175Z,100142.04
2023-05-02T23:24:46.482Z,100139.40
2023-05-02T23:27:13.625Z,100139.31
2023-05-02T23:29:40.584Z,100141.21
2023-05-02T23:32:08.241Z,100138.91
2023-05-02T23:34:36.572Z,100140.48
2023-05-02T23:37:03.523Z,100145.04
2023-05-02T23:39:30.807Z,100147.66
2023-05-02T23:41:57.615Z,100149.02
2023-05-02T23:44:24.429Z,100146.34
2023-05-02T23:46:51.334Z,100142.64
2023-05-02T23:49:18.340Z,100142.81
2023-05-02T23:51:45.283Z,100141.56
2023-05-02T23:54:12.780Z,100141.19
2023-05-02T23:56:39.610Z,100138.34
2023-05-02T23:59:06.485Z,100137.77
